createdAt,value
2023-12-05T00:05:14.143Z,17.85
2023-12-05T00:08:15.005Z,17.82
2023-12-05T00:10:44.213Z,17.80
2023-12-05T00:13:42.439Z,17.78
2023-12-05T00:16:42.931Z,17.73
2023-12-05T00:23:12.017Z,17.68
2023-12-05T00:29:47.465Z,17.57
2023-12-05T00:32:45.201Z,17.54
2023-12-05T00:43:51.062Z,17.22
2023-12-05T00:46:40.533Z,17.17
2023-12-05T00:49:09.926Z,17.05
2023-12-05T00:54:45.866Z,16.87
2023-12-05T01:29:51.393Z,16.11
2023-12-05T01:39:08.494Z,15.91
2023-12-05T01:52:27.837Z,15.76
2023-12-05T02:00:40.209Z,15.47
2023-12-05T02:04:15.077Z,15.37
2023-12-05T02:10:15.409Z,15.28
2023-12-05T02:12:47.055Z,15.23
2023-12-05T02:15:22.768Z,15.20
2023-12-05T02:19:07.178Z,15.12
2023-12-05T02:21:41.358Z,15.02
2023-12-05T02:25:16.409Z,14.96
2023-12-05T02:27:53.819Z,14.86
2023-12-05T02:30:23.407Z,14.81
2023-12-05T02:32:55.540Z,14.80
2023-12-05T02:35:37.164Z,14.79
2023-12-05T02:38:13.519Z,14.78
2023-12-05T02:41:19.949Z,14.76
2023-12-05T02:46:44.183Z,14.73
2023-12-05T02:49:14.125Z,14.76
2023-12-05T02:51:44.474Z,14.76
2023-12-05T02:54:12.974Z,14.73
2023-12-05T02:56:41.616Z,14.70
2023-12-05T02:59:10.171Z,14.68
2023-12-05T03:01:42.150Z,14.71
2023-12-05T03:04:11.204Z,14.70
2023-12-05T03:06:39.864Z,14.68
2023-12-05T03:09:08.408Z,14.66
2023-12-05T03:11:37.111Z,14.63
2023-12-05T03:14:10.897Z,14.63
2023-12-05T03:16:39.288Z,14.60
2023-12-05T03:19:08.961Z,14.60
2023-12-05T03:21:37.841Z,14.56
2023-12-05T03:24:06.605Z,14.51
2023-12-05T03:26:35.089Z,14.48
2023-12-05T03:29:03.468Z,14.48
2023-12-05T03:31:40.300Z,14.47
2023-12-05T03:34:09.396Z,14.43
2023-12-05T03:36:37.813Z,14.39
2023-12-05T03:39:07.206Z,14.38
2023-12-05T03:41:35.752Z,14.37
2023-12-05T03:44:04.105Z,14.36
2023-12-05T03:46:32.563Z,14.36
2023-12-05T03:49:04.052Z,14.34
2023-12-05T03:51:32.912Z,14.30
2023-12-05T03:54:01.484Z,14.27
2023-12-05T03:56:30.171Z,14.24
2023-12-05T03:59:01.577Z,14.21
2023-12-05T04:01:32.455Z,14.17
2023-12-05T04:04:00.995Z,14.16
2023-12-05T04:06:30.262Z,14.16
2023-12-05T04:09:08.043Z,14.15
2023-12-05T04:11:36.592Z,14.15
2023-12-05T04:14:05.200Z,14.16
2023-12-05T04:16:33.838Z,14.13
2023-12-05T04:19:05.381Z,14.12
2023-12-05T04:21:34.466Z,14.10
2023-12-05T04:24:05.338Z,14.06
2023-12-05T04:26:34.751Z,14.05
2023-12-05T04:29:03.236Z,14.04
2023-12-05T04:31:31.709Z,13.99
2023-12-05T04:34:00.243Z,13.94
2023-12-05T04:36:28.716Z,13.89
2023-12-05T04:38:57.091Z,13.86
2023-12-05T04:41:29.691Z,13.84
2023-12-05T04:43:58.929Z,13.80
2023-12-05T04:46:28.144Z,13.78
2023-12-05T04:48:56.612Z,13.76
2023-12-05T04:51:27.712Z,13.72
2023-12-05T04:53:56.064Z,13.69
2023-12-05T04:56:29.703Z,13.69
2023-12-05T04:59:01.331Z,13.68
2023-12-05T05:01:35.970Z,13.65
2023-12-05T05:04:07.137Z,13.61
2023-12-05T05:06:35.591Z,13.57
2023-12-05T05:09:04.153Z,13.57
2023-12-05T05:11:33.059Z,13.58
2023-12-05T05:14:02.335Z,13.59
2023-12-05T05:16:34.654Z,13.63
2023-12-05T05:19:03.511Z,13.63
2023-12-05T05:21:32.040Z,13.63
2023-12-05T05:24:00.587Z,13.62
2023-12-05T05:26:31.864Z,13.62
2023-12-05T05:29:00.327Z,13.60
2023-12-05T05:31:29.624Z,13.57
2023-12-05T05:33:58.133Z,13.53
2023-12-05T05:36:26.619Z,13.53
2023-12-05T05:38:55.548Z,13.57
2023-12-05T05:41:24.090Z,13.55
2023-12-05T05:43:52.482Z,13.52
2023-12-05T05:46:20.886Z,13.52
2023-12-05T05:48:49.303Z,13.52
2023-12-05T05:51:18.075Z,13.54
2023-12-05T05:53:46.458Z,13.52
2023-12-05T05:56:15.016Z,13.51
2023-12-05T05:58:43.347Z,13.49
2023-12-05T06:01:14.417Z,13.47
2023-12-05T06:03:46.260Z,13.41
2023-12-05T06:06:14.706Z,13.37
2023-12-05T06:08:43.865Z,13.33
2023-12-05T06:11:12.263Z,13.25
2023-12-05T06:13:40.692Z,13.20
2023-12-05T06:16:10.170Z,13.18
2023-12-05T06:18:40.517Z,13.16
2023-12-05T06:21:09.127Z,13.12
2023-12-05T06:23:40.867Z,13.09
2023-12-05T06:26:09.710Z,13.10
2023-12-05T06:28:38.227Z,13.10
2023-12-05T06:31:07.028Z,13.15
2023-12-05T06:33:35.467Z,13.13
2023-12-05T06:36:04.413Z,13.14
2023-12-05T06:38:32.975Z,13.14
2023-12-05T06:41:01.564Z,13.15
2023-12-05T06:43:31.664Z,13.17
2023-12-05T06:46:00.150Z,13.13
2023-12-05T06:48:36.815Z,13.10
2023-12-05T06:51:06.358Z,13.05
2023-12-05T06:53:37.429Z,13.03
2023-12-05T06:56:08.363Z,12.97
2023-12-05T06:58:36.744Z,12.94
2023-12-05T07:01:05.306Z,12.91
2023-12-05T07:03:37.794Z,12.91
2023-12-05T07:06:12.072Z,12.89
2023-12-05T07:08:40.534Z,12.86
2023-12-05T07:11:09.228Z,12.82
2023-12-05T07:13:37.619Z,12.78
2023-12-05T07:16:06.453Z,12.74
2023-12-05T07:18:35.308Z,12.71
2023-12-05T07:21:03.938Z,12.69
2023-12-05T07:23:33.056Z,12.67
2023-12-05T07:26:01.556Z,12.67
2023-12-05T07:28:30.096Z,12.67
2023-12-05T07:31:00.081Z,12.65
2023-12-05T07:33:28.854Z,12.61
2023-12-05T07:35:59.734Z,12.61
2023-12-05T07:38:28.138Z,12.62
2023-12-05T07:40:57.469Z,12.61
2023-12-05T07:43:26.509Z,12.60
2023-12-05T07:46:01.320Z,12.60
2023-12-05T07:48:29.919Z,12.63
2023-12-05T07:50:58.397Z,12.62
2023-12-05T07:53:27.047Z,12.61
2023-12-05T07:55:55.512Z,12.57
2023-12-05T07:58:23.846Z,12.52
2023-12-05T08:00:52.494Z,12.49
2023-12-05T08:03:38.718Z,12.48
2023-12-05T08:06:07.993Z,12.46
2023-12-05T08:08:44.123Z,12.46
2023-12-05T08:11:16.544Z,12.43
2023-12-05T08:13:49.733Z,12.38
2023-12-05T08:16:24.421Z,12.35
2023-12-05T08:18:52.983Z,12.33
2023-12-05T08:21:21.465Z,12.32
2023-12-05T08:23:50.077Z,12.30
2023-12-05T08:26:18.458Z,12.29
2023-12-05T08:28:47.194Z,12.29
2023-12-05T08:31:16.307Z,12.31
2023-12-05T08:33:44.965Z,12.33
2023-12-05T08:36:13.686Z,12.37
2023-12-05T08:38:45.040Z,12.35
2023-12-05T08:41:20.752Z,12.35
2023-12-05T08:43:57.335Z,12.33
2023-12-05T08:46:28.837Z,12.28
2023-12-05T08:48:57.746Z,12.21
2023-12-05T08:51:26.327Z,12.19
2023-12-05T08:53:55.015Z,12.17
2023-12-05T08:56:23.876Z,12.19
2023-12-05T08:58:52.266Z,12.19
2023-12-05T09:01:24.213Z,12.19
2023-12-05T09:03:53.216Z,12.17
2023-12-05T09:06:23.305Z,12.18
2023-12-05T09:08:54.142Z,12.18
2023-12-05T09:11:25.511Z,12.14
2023-12-05T09:13:53.465Z,12.07
2023-12-05T09:16:27.524Z,12.05
2023-12-05T09:18:56.188Z,12.02
2023-12-05T09:21:25.711Z,11.99
2023-12-05T09:23:54.108Z,11.98
2023-12-05T09:26:24.181Z,11.99
2023-12-05T09:28:53.208Z,11.96
2023-12-05T09:31:21.579Z,11.98
2023-12-05T09:33:52.849Z,11.98
2023-12-05T09:36:21.239Z,11.94
2023-12-05T09:38:49.734Z,11.94
2023-12-05T09:41:21.861Z,11.92
2023-12-05T09:46:22.516Z,11.89
2023-12-05T09:48:53.319Z,11.88
2023-12-05T09:51:21.921Z,11.85
2023-12-05T09:53:51.076Z,11.85
2023-12-05T09:56:20.352Z,11.86
2023-12-05T09:58:49.629Z,11.88
2023-12-05T10:01:19.910Z,11.84
2023-12-05T10:03:56.867Z,11.84
2023-12-05T10:06:32.504Z,11.85
2023-12-05T10:09:02.839Z,11.87
2023-12-05T10:11:32.854Z,11.90
2023-12-05T10:14:01.330Z,11.89
2023-12-05T10:16:30.350Z,11.85
2023-12-05T10:19:02.824Z,11.78
2023-12-05T10:21:31.466Z,11.74
2023-12-05T10:24:01.421Z,11.75
2023-12-05T10:26:30.801Z,11.73
2023-12-05T10:29:01.669Z,11.72
2023-12-05T10:31:30.356Z,11.74
2023-12-05T10:34:09.462Z,11.78
2023-12-05T10:36:43.972Z,11.75
2023-12-05T10:39:12.680Z,11.73
2023-12-05T10:41:41.164Z,11.74
2023-12-05T10:44:10.426Z,11.75
2023-12-05T10:46:39.051Z,11.71
2023-12-05T10:49:08.947Z,11.68
2023-12-05T10:51:38.113Z,11.65
2023-12-05T10:54:06.539Z,11.63
2023-12-05T10:56:34.997Z,11.61
2023-12-05T10:59:05.203Z,11.59
2023-12-05T11:01:39.815Z,11.58
2023-12-05T11:04:09.975Z,11.58
2023-12-05T11:06:41.004Z,11.58
2023-12-05T11:09:09.607Z,11.61
2023-12-05T11:11:42.914Z,11.65
2023-12-05T11:14:13.784Z,11.65
2023-12-05T11:16:50.800Z,11.64
2023-12-05T11:19:22.002Z,11.63
2023-12-05T11:22:23.707Z,11.62
2023-12-05T11:25:10.259Z,11.60
2023-12-05T11:27:55.227Z,11.61
2023-12-05T11:30:34.702Z,11.58
2023-12-05T11:33:20.323Z,11.59
2023-12-05T11:36:12.321Z,11.58
2023-12-05T11:38:47.969Z,11.53
2023-12-05T11:41:25.111Z,11.48
2023-12-05T11:44:16.754Z,11.47
2023-12-05T11:46:49.120Z,11.41
2023-12-05T11:49:39.255Z,11.40
2023-12-05T11:52:12.938Z,11.34
2023-12-05T11:54:45.170Z,11.34
2023-12-05T11:57:17.160Z,11.33
2023-12-05T11:59:51.869Z,11.32
2023-12-05T12:02:27.464Z,11.30
2023-12-05T12:05:07.821Z,11.29
2023-12-05T12:08:00.597Z,11.29
2023-12-05T12:10:29.112Z,11.29
2023-12-05T12:12:58.576Z,11.28
2023-12-05T12:15:28.014Z,11.24
2023-12-05T12:17:56.477Z,11.21
2023-12-05T12:20:25.590Z,11.22
2023-12-05T12:22:54.152Z,11.24
2023-12-05T12:25:22.697Z,11.24
2023-12-05T12:27:51.087Z,11.25
2023-12-05T12:30:20.248Z,11.25
2023-12-05T12:32:59.739Z,11.28
2023-12-05T12:35:29.590Z,11.30
2023-12-05T12:37:58.433Z,11.31
2023-12-05T12:40:27.380Z,11.26
2023-12-05T12:42:57.427Z,11.23
2023-12-05T12:45:28.745Z,11.20
2023-12-05T12:47:58.038Z,11.21
2023-12-05T12:50:26.423Z,11.26
2023-12-05T12:52:56.690Z,11.26
2023-12-05T12:55:27.950Z,11.26
2023-12-05T12:58:10.565Z,11.28
2023-12-05T13:00:42.929Z,11.28
2023-12-05T13:03:19.141Z,11.27
2023-12-05T13:05:54.110Z,11.26
2023-12-05T13:08:26.494Z,11.29
2023-12-05T13:10:57.606Z,11.32
2023-12-05T13:13:26.196Z,11.35
2023-12-05T13:15:58.595Z,11.37
2023-12-05T13:18:27.302Z,11.34
2023-12-05T13:20:57.172Z,11.30
2023-12-05T13:23:25.609Z,11.28
2023-12-05T13:28:21.489Z,11.31
2023-12-05T13:30:59.136Z,11.31
2023-12-05T13:33:30.934Z,11.32
2023-12-05T13:36:01.334Z,11.26
2023-12-05T13:38:30.336Z,11.22
2023-12-05T13:45:34.867Z,11.17
2023-12-05T13:48:03.887Z,11.20
2023-12-05T13:50:34.591Z,11.22
2023-12-05T13:53:03.755Z,11.18
2023-12-05T13:55:33.122Z,11.12
2023-12-05T13:58:01.634Z,11.07
2023-12-05T14:03:14.422Z,11.02
2023-12-05T14:06:26.539Z,10.99
2023-12-05T14:11:22.586Z,10.99
2023-12-05T14:13:59.472Z,11.02
2023-12-05T14:19:10.473Z,11.02
2023-12-05T14:21:39.932Z,11.00
2023-12-05T14:24:08.383Z,10.98
2023-12-05T14:26:37.364Z,10.96
2023-12-05T14:29:05.731Z,10.96
2023-12-05T14:31:38.681Z,10.96
2023-12-05T14:34:09.310Z,10.99
2023-12-05T14:36:38.593Z,11.06
2023-12-05T14:41:51.643Z,11.22
2023-12-05T14:44:27.560Z,11.22
2023-12-05T14:47:26.745Z,11.26
2023-12-05T14:50:25.694Z,11.32
2023-12-05T15:02:33.404Z,11.36
2023-12-05T15:06:25.313Z,11.31
2023-12-05T15:08:55.575Z,11.36
2023-12-05T15:11:27.957Z,11.38
2023-12-05T15:14:04.722Z,11.39
2023-12-05T15:16:35.368Z,11.42
2023-12-05T15:22:25.541Z,11.52
2023-12-05T15:25:31.745Z,11.57
2023-12-05T15:30:50.637Z,11.49
2023-12-05T15:33:21.747Z,11.46
2023-12-05T15:35:51.651Z,11.38
2023-12-05T15:38:23.347Z,11.31
2023-12-05T15:50:38.054Z,11.38
2023-12-05T15:54:09.714Z,11.48
2023-12-05T15:57:57.296Z,11.58
2023-12-05T16:03:53.328Z,11.71
2023-12-05T16:18:54.554Z,12.23
2023-12-05T16:28:49.703Z,13.08
2023-12-05T16:34:58.022Z,13.24
2023-12-05T16:38:50.078Z,13.42
2023-12-05T17:07:59.510Z,15.39
2023-12-05T17:12:03.173Z,15.65
2023-12-05T17:15:05.279Z,16.13
2023-12-05T17:17:35.905Z,16.38
2023-12-05T17:24:38.698Z,17.19
2023-12-05T17:29:46.823Z,17.44
2023-12-05T17:32:50.143Z,17.33
2023-12-05T17:35:24.531Z,17.28
2023-12-05T17:42:25.020Z,17.65
2023-12-05T17:48:28.876Z,18.28
2023-12-05T17:51:09.949Z,18.54
2023-12-05T17:53:46.779Z,18.82
2023-12-05T17:56:18.440Z,19.00
2023-12-05T17:58:49.477Z,19.20
2023-12-05T18:01:19.064Z,19.34
2023-12-05T18:03:48.460Z,19.40
2023-12-05T18:06:20.572Z,19.49
2023-12-05T18:08:49.398Z,19.63
2023-12-05T18:11:17.902Z,19.73
2023-12-05T18:13:50.901Z,19.74
2023-12-05T18:16:20.202Z,19.71
2023-12-05T18:18:52.166Z,19.62
2023-12-05T18:21:21.995Z,19.46
2023-12-05T19:56:16.383Z,19.59
2023-12-05T19:59:22.469Z,19.52
2023-12-05T20:11:59.952Z,19.63
2023-12-05T20:18:20.239Z,19.62
2023-12-05T20:24:01.273Z,19.68
2023-12-05T20:26:57.781Z,19.61
2023-12-05T21:02:45.063Z,19.02
2023-12-05T21:20:25.480Z,18.69
2023-12-05T21:30:25.746Z,18.73
2023-12-05T21:37:25.070Z,18.71
2023-12-05T21:40:30.912Z,18.76
2023-12-05T21:43:30.460Z,18.76
2023-12-05T21:46:43.122Z,18.78
2023-12-05T21:50:17.543Z,18.79
2023-12-05T22:08:40.752Z,18.84
2023-12-05T22:11:17.758Z,18.86
2023-12-05T22:13:47.788Z,18.83
2023-12-05T22:16:28.469Z,18.81
2023-12-05T22:18:57.309Z,18.77
2023-12-05T22:24:02.767Z,18.78
2023-12-05T22:26:33.220Z,18.79
2023-12-05T22:33:49.916Z,18.92
2023-12-05T22:36:48.095Z,18.96
2023-12-05T22:39:16.617Z,18.94
2023-12-05T22:41:45.634Z,18.93
2023-12-05T22:44:14.070Z,18.90
2023-12-05T22:46:43.898Z,18.86
2023-12-05T22:49:15.600Z,18.81
2023-12-05T22:54:15.938Z,18.80
2023-12-05T22:56:47.477Z,18.82
2023-12-05T22:59:17.544Z,18.84
2023-12-05T23:02:16.766Z,18.84
2023-12-05T23:04:48.173Z,18.80
2023-12-05T23:07:18.190Z,18.76
2023-12-05T23:09:46.906Z,18.77
2023-12-05T23:12:15.875Z,18.75
2023-12-05T23:14:50.115Z,18.73
2023-12-05T23:17:19.451Z,18.72
2023-12-05T23:19:49.414Z,18.69
2023-12-05T23:22:17.929Z,18.67
2023-12-05T23:24:46.607Z,18.64
2023-12-05T23:27:15.036Z,18.62
2023-12-05T23:29:43.914Z,18.60
2023-12-05T23:32:15.533Z,18.56
2023-12-05T23:34:44.913Z,18.55
2023-12-05T23:37:48.457Z,18.53
2023-12-05T23:40:19.832Z,18.50
2023-12-05T23:42:51.737Z,18.50
2023-12-05T23:45:26.000Z,18.46
2023-12-05T23:47:57.447Z,18.45
2023-12-05T23:50:55.315Z,18.45
2023-12-05T23:53:25.657Z,18.39
2023-12-05T23:56:20.376Z,18.38
2023-12-05T23:58:48.842Z,18.36
